createdAt,value
2022-08-04T00:06:53.554Z,0.00
2022-08-04T00:16:53.419Z,0.00
2022-08-04T00:22:32.108Z,0.00
2022-08-04T00:29:32.033Z,0.00
2022-08-04T00:30:32.028Z,0.00
2022-08-04T00:34:31.980Z,0.00
2022-08-04T00:41:06.660Z,0.00
2022-08-04T00:43:06.643Z,0.00
2022-08-04T00:46:15.259Z,0.00
2022-08-04T00:47:07.625Z,0.00
2022-08-04T00:48:06.580Z,0.00
2022-08-04T00:51:06.550Z,0.00
2022-08-04T00:53:13.576Z,0.00
2022-08-04T00:54:06.515Z,0.00
2022-08-04T00:56:06.499Z,0.00
2022-08-04T00:58:06.474Z,0.00
2022-08-04T01:01:06.558Z,0.00
2022-08-04T01:04:06.409Z,0.00
2022-08-04T01:07:06.379Z,0.00
2022-08-04T01:08:06.370Z,0.00
2022-08-04T01:10:06.348Z,0.00
2022-08-04T01:11:06.337Z,0.00
2022-08-04T01:16:06.284Z,0.00
2022-08-04T01:17:06.269Z,0.00
2022-08-04T01:18:13.304Z,0.00
2022-08-04T01:19:06.449Z,0.00
2022-08-04T01:20:06.245Z,0.00
2022-08-04T01:23:06.209Z,0.00
2022-08-04T01:24:06.195Z,0.00
2022-08-04T01:25:07.477Z,0.00
2022-08-04T01:26:43.220Z,0.00
2022-08-04T01:28:06.361Z,0.00
2022-08-04T01:30:06.135Z,0.00
2022-08-04T01:32:06.119Z,0.00
2022-08-04T01:33:06.099Z,0.00
2022-08-04T01:36:06.151Z,0.00
2022-08-04T01:37:06.062Z,0.00
2022-08-04T01:39:07.101Z,0.00
2022-08-04T01:42:06.214Z,0.00
2022-08-04T01:44:06.006Z,0.00
2022-08-04T01:47:05.960Z,0.00
2022-08-04T01:48:05.945Z,0.00
2022-08-04T01:49:05.936Z,0.00
2022-08-04T01:50:05.934Z,0.00
2022-08-04T01:54:05.877Z,0.00
2022-08-04T01:55:05.867Z,0.00
2022-08-04T01:56:06.061Z,0.00
2022-08-04T01:58:06.872Z,0.00
2022-08-04T01:59:05.869Z,0.00
2022-08-04T02:00:11.832Z,0.00
2022-08-04T02:01:08.586Z,0.00
2022-08-04T02:02:05.898Z,0.00
2022-08-04T02:03:05.909Z,0.00
2022-08-04T02:04:19.670Z,0.00
2022-08-04T02:06:05.754Z,0.00
2022-08-04T02:14:05.678Z,0.00
2022-08-04T02:15:05.713Z,0.00
2022-08-04T02:16:05.649Z,0.00
2022-08-04T02:17:05.643Z,0.00
2022-08-04T02:20:05.606Z,0.00
2022-08-04T02:22:05.585Z,0.00
2022-08-04T02:25:05.763Z,0.00
2022-08-04T02:32:05.482Z,0.00
2022-08-04T02:33:05.470Z,0.00
2022-08-04T02:34:05.462Z,0.00
2022-08-04T02:35:05.447Z,0.00
2022-08-04T02:36:05.436Z,0.00
2022-08-04T02:37:05.427Z,0.00
2022-08-04T02:38:05.425Z,0.00
2022-08-04T02:39:05.472Z,0.00
2022-08-04T02:41:11.599Z,0.00
2022-08-04T02:43:05.365Z,0.00
2022-08-04T02:46:05.347Z,0.00
2022-08-04T02:50:11.301Z,0.00
2022-08-04T02:53:09.905Z,0.00
2022-08-04T02:58:05.209Z,0.00
2022-08-04T03:01:05.246Z,0.00
2022-08-04T03:03:06.123Z,0.00
2022-08-04T03:04:05.147Z,0.00
2022-08-04T03:05:05.348Z,0.00
2022-08-04T03:07:05.110Z,0.00
2022-08-04T03:09:05.098Z,0.00
2022-08-04T03:10:05.082Z,0.00
2022-08-04T03:11:11.080Z,0.00
2022-08-04T03:12:05.064Z,0.00
2022-08-04T03:13:05.051Z,0.00
2022-08-04T03:15:05.029Z,0.00
2022-08-04T03:17:05.013Z,0.00
2022-08-04T03:21:04.980Z,0.00
2022-08-04T03:23:13.741Z,0.00
2022-08-04T03:25:04.933Z,0.00
2022-08-04T03:26:05.121Z,0.00
2022-08-04T03:28:04.913Z,0.00
2022-08-04T03:30:04.874Z,0.00
2022-08-04T03:32:04.868Z,0.00
2022-08-04T03:33:04.799Z,1.00
2022-08-04T03:34:04.842Z,0.00
2022-08-04T03:35:04.818Z,0.00
2022-08-04T03:36:04.767Z,1.00
2022-08-04T03:37:04.751Z,1.00
2022-08-04T03:38:10.807Z,1.00
2022-08-04T03:39:04.827Z,0.00
2022-08-04T03:40:04.773Z,0.00
2022-08-04T03:41:04.711Z,2.00
2022-08-04T03:42:05.505Z,1.00
2022-08-04T03:43:04.689Z,1.00
2022-08-04T03:45:04.681Z,1.00
2022-08-04T03:46:05.693Z,1.00
2022-08-04T03:47:04.696Z,6.00
2022-08-04T03:48:10.640Z,2.00
2022-08-04T03:49:04.620Z,2.00
2022-08-04T03:51:39.328Z,10.00
2022-08-04T03:52:39.271Z,5.00
2022-08-04T03:53:39.263Z,5.00
2022-08-04T03:54:39.266Z,6.00
2022-08-04T03:55:39.244Z,6.00
2022-08-04T03:56:39.239Z,8.00
2022-08-04T03:57:39.217Z,9.00
2022-08-04T03:58:39.217Z,10.00
2022-08-04T03:59:39.204Z,11.00
2022-08-04T04:00:39.193Z,13.00
2022-08-04T04:02:01.594Z,15.00
2022-08-04T04:02:40.282Z,18.00
2022-08-04T04:04:39.152Z,37.00
2022-08-04T04:06:00.025Z,40.00
2022-08-04T04:06:40.164Z,44.00
2022-08-04T04:07:39.116Z,47.00
2022-08-04T04:08:39.109Z,52.00
2022-08-04T04:09:56.971Z,59.00
2022-08-04T04:10:40.124Z,63.00
2022-08-04T04:11:55.502Z,68.00
2022-08-04T04:12:40.104Z,72.00
2022-08-04T04:13:39.252Z,76.00
2022-08-04T04:14:41.040Z,87.00
2022-08-04T04:15:39.032Z,88.00
2022-08-04T04:16:45.031Z,94.00
2022-08-04T04:17:39.010Z,100.00
2022-08-04T04:18:38.999Z,106.00
2022-08-04T04:19:38.991Z,117.00
2022-08-04T04:20:38.975Z,125.00
2022-08-04T04:21:39.373Z,128.00
2022-08-04T04:22:38.976Z,138.00
2022-08-04T04:23:38.950Z,142.00
2022-08-04T04:24:38.938Z,144.00
2022-08-04T04:25:38.931Z,160.00
2022-08-04T04:26:38.915Z,181.00
2022-08-04T04:27:38.910Z,191.00
2022-08-04T04:28:44.646Z,194.00
2022-08-04T04:29:39.920Z,198.00
2022-08-04T04:30:38.873Z,203.00
2022-08-04T04:31:38.868Z,227.00
2022-08-04T04:32:38.851Z,243.00
2022-08-04T04:33:38.846Z,234.00
2022-08-04T04:34:41.745Z,231.00
2022-08-04T04:35:39.862Z,238.00
2022-08-04T04:36:38.818Z,265.00
2022-08-04T04:37:48.789Z,269.00
2022-08-04T04:38:44.795Z,239.00
2022-08-04T04:39:38.823Z,281.00
2022-08-04T04:40:38.769Z,369.00
2022-08-04T04:41:38.759Z,356.00
2022-08-04T04:42:38.746Z,319.00
2022-08-04T04:43:50.799Z,419.00
2022-08-04T04:44:39.772Z,371.00
2022-08-04T04:45:38.720Z,348.00
2022-08-04T04:46:38.705Z,347.00
2022-08-04T04:48:01.677Z,384.00
2022-08-04T04:48:39.724Z,430.00
2022-08-04T04:49:38.671Z,374.00
2022-08-04T04:50:38.662Z,270.00
2022-08-04T04:51:38.649Z,333.00
2022-08-04T04:52:38.646Z,417.00
2022-08-04T04:53:38.640Z,584.00
2022-08-04T04:54:38.681Z,612.00
2022-08-04T04:55:38.611Z,573.00
2022-08-04T04:56:38.599Z,567.00
2022-08-04T04:57:53.910Z,580.00
2022-08-04T04:58:39.625Z,588.00
2022-08-04T04:59:38.567Z,623.00
2022-08-04T05:00:38.561Z,652.00
2022-08-04T05:01:38.546Z,625.00
2022-08-04T05:02:38.534Z,585.00
2022-08-04T05:03:38.727Z,548.00
2022-08-04T05:04:38.526Z,627.00
2022-08-04T05:05:38.510Z,608.00
2022-08-04T05:06:38.492Z,646.00
2022-08-04T05:07:44.495Z,745.00
2022-08-04T05:08:43.163Z,687.00
2022-08-04T05:09:39.512Z,607.00
2022-08-04T05:10:38.452Z,676.00
2022-08-04T05:11:38.444Z,734.00
2022-08-04T05:14:31.518Z,790.00
2022-08-04T05:14:34.753Z,1120.00
2022-08-04T05:14:41.329Z,1049.00
2022-08-04T05:15:38.400Z,980.00
2022-08-04T05:16:38.391Z,945.00
2022-08-04T05:17:38.688Z,857.00
2022-08-04T05:18:38.370Z,851.00
2022-08-04T05:19:38.360Z,881.00
2022-08-04T05:20:38.350Z,902.00
2022-08-04T05:21:38.344Z,842.00
2022-08-04T05:22:38.325Z,940.00
2022-08-04T05:23:38.317Z,1014.00
2022-08-04T05:24:44.315Z,838.00
2022-08-04T05:25:38.294Z,1117.00
2022-08-04T05:26:38.283Z,728.00
2022-08-04T05:27:40.169Z,943.00
2022-08-04T05:28:38.267Z,953.00
2022-08-04T05:29:38.253Z,972.00
2022-08-04T05:30:38.243Z,806.00
2022-08-04T05:31:38.232Z,881.00
2022-08-04T05:32:38.424Z,806.00
2022-08-04T05:33:38.209Z,852.00
2022-08-04T05:34:38.205Z,909.00
2022-08-04T05:36:16.293Z,860.00
2022-08-04T05:36:41.477Z,884.00
2022-08-04T05:37:38.171Z,915.00
2022-08-04T05:38:38.160Z,992.00
2022-08-04T05:39:38.194Z,1075.00
2022-08-04T05:41:08.884Z,963.00
2022-08-04T05:42:09.062Z,988.00
2022-08-04T05:43:14.856Z,978.00
2022-08-04T05:44:08.842Z,1028.00
2022-08-04T05:45:08.829Z,1026.00
2022-08-04T05:46:09.020Z,987.00
2022-08-04T05:47:08.805Z,1001.00
2022-08-04T05:48:08.795Z,1029.00
2022-08-04T05:49:08.787Z,1071.00
2022-08-04T05:50:08.778Z,1150.00
2022-08-04T05:52:08.754Z,1103.00
2022-08-04T05:53:08.745Z,968.00
2022-08-04T05:54:08.934Z,1384.00
2022-08-04T05:55:08.722Z,1231.00
2022-08-04T05:56:08.715Z,882.00
2022-08-04T05:57:14.704Z,983.00
2022-08-04T05:58:08.688Z,1227.00
2022-08-04T05:59:08.675Z,2025.00
2022-08-04T06:00:31.652Z,1116.00
2022-08-04T06:01:09.693Z,1500.00
2022-08-04T06:02:08.675Z,1537.00
2022-08-04T06:03:08.642Z,1698.00
2022-08-04T06:04:11.257Z,1236.00
2022-08-04T06:05:08.624Z,1673.00
2022-08-04T06:06:08.601Z,1160.00
2022-08-04T06:08:07.765Z,1315.00
2022-08-04T06:08:48.309Z,1334.00
2022-08-04T06:09:47.263Z,1195.00
2022-08-04T06:10:47.255Z,1149.00
2022-08-04T06:12:03.379Z,1351.00
2022-08-04T06:12:47.229Z,1608.00
2022-08-04T06:13:50.006Z,1732.00
2022-08-04T06:14:47.221Z,1332.00
2022-08-04T06:15:47.205Z,1389.00
2022-08-04T06:16:51.490Z,1414.00
2022-08-04T06:18:35.252Z,1354.00
2022-08-04T06:20:00.623Z,1734.00
2022-08-04T06:20:02.635Z,1186.00
2022-08-04T06:20:54.595Z,1811.00
2022-08-04T06:21:47.134Z,1383.00
2022-08-04T06:22:47.124Z,737.00
2022-08-04T06:23:52.920Z,970.00
2022-08-04T06:24:48.342Z,1321.00
2022-08-04T06:25:47.110Z,1052.00
2022-08-04T06:26:47.287Z,1190.00
2022-08-04T06:27:47.066Z,2341.00
2022-08-04T06:28:47.056Z,1631.00
2022-08-04T06:29:51.367Z,1171.00
2022-08-04T06:30:47.035Z,1562.00
2022-08-04T06:32:26.968Z,861.00
2022-08-04T06:32:48.258Z,1925.00
2022-08-04T06:33:54.798Z,1012.00
2022-08-04T06:34:48.031Z,1364.00
2022-08-04T06:35:46.982Z,1194.00
2022-08-04T06:36:47.246Z,1487.00
2022-08-04T06:37:47.198Z,1288.00
2022-08-04T06:38:46.949Z,1546.00
2022-08-04T06:39:47.982Z,1587.00
2022-08-04T06:40:46.933Z,1626.00
2022-08-04T06:41:53.512Z,1315.00
2022-08-04T06:42:47.944Z,1357.00
2022-08-04T06:43:46.901Z,1523.00
2022-08-04T06:44:52.917Z,1487.00
2022-08-04T06:45:46.881Z,1236.00
2022-08-04T06:46:46.876Z,1551.00
2022-08-04T06:47:46.860Z,1568.00
2022-08-04T06:48:52.854Z,1227.00
2022-08-04T06:51:23.349Z,1414.00
2022-08-04T06:51:25.419Z,1589.00
2022-08-04T06:51:49.486Z,1627.00
2022-08-04T06:52:46.813Z,1609.00
2022-08-04T06:53:46.792Z,1678.00
2022-08-04T06:54:46.999Z,1672.00
2022-08-04T06:55:46.771Z,1599.00
2022-08-04T06:56:46.976Z,1701.00
2022-08-04T06:57:46.756Z,1728.00
2022-08-04T06:58:46.737Z,1756.00
2022-08-04T06:59:52.736Z,1787.00
2022-08-04T07:00:46.750Z,1796.00
2022-08-04T07:01:47.066Z,1817.00
2022-08-04T07:02:46.712Z,1841.00
2022-08-04T07:03:46.686Z,1845.00
2022-08-04T07:04:46.686Z,1881.00
2022-08-04T07:05:46.668Z,1913.00
2022-08-04T07:06:46.660Z,1938.00
2022-08-04T07:07:57.096Z,1933.00
2022-08-04T07:08:47.696Z,1942.00
2022-08-04T07:09:46.622Z,1969.00
2022-08-04T07:10:46.612Z,2329.00
2022-08-04T07:11:46.611Z,1629.00
2022-08-04T07:12:46.596Z,2047.00
2022-08-04T07:13:46.577Z,2055.00
2022-08-04T07:14:52.578Z,2084.00
2022-08-04T07:15:48.645Z,2106.00
2022-08-04T07:16:46.750Z,2138.00
2022-08-04T07:17:46.541Z,2188.00
2022-08-04T07:18:46.539Z,2199.00
2022-08-04T07:19:46.812Z,2206.00
2022-08-04T07:20:46.515Z,2207.00
2022-08-04T07:22:06.457Z,2229.00
2022-08-04T07:22:53.552Z,2235.00
2022-08-04T07:23:48.485Z,2473.00
2022-08-04T07:24:46.474Z,2172.00
2022-08-04T07:26:11.367Z,2362.00
2022-08-04T07:26:53.497Z,2401.00
2022-08-04T07:27:48.478Z,2448.00
2022-08-04T07:28:46.428Z,2475.00
2022-08-04T07:29:46.626Z,2496.00
2022-08-04T07:30:46.415Z,2533.00
2022-08-04T07:31:46.601Z,2573.00
2022-08-04T07:32:52.400Z,2621.00
2022-08-04T07:33:46.383Z,2653.00
2022-08-04T07:34:49.904Z,2694.00
2022-08-04T07:36:04.393Z,2736.00
2022-08-04T07:36:50.564Z,2761.00
2022-08-04T07:37:48.340Z,2790.00
2022-08-04T07:38:51.330Z,2804.00
2022-08-04T07:39:48.822Z,2859.00
2022-08-04T07:40:46.308Z,2905.00
2022-08-04T07:41:49.040Z,2864.00
2022-08-04T07:42:46.291Z,2928.00
2022-08-04T07:43:46.275Z,2933.00
2022-08-04T07:44:52.299Z,2934.00
2022-08-04T07:45:46.258Z,3080.00
2022-08-04T07:46:46.243Z,2888.00
2022-08-04T07:48:04.908Z,3228.00
2022-08-04T07:48:47.277Z,2919.00
2022-08-04T07:49:56.326Z,3069.00
2022-08-04T07:50:47.243Z,3165.00
2022-08-04T07:51:46.411Z,3210.00
2022-08-04T07:52:58.510Z,3247.00
2022-08-04T07:53:54.909Z,3278.00
2022-08-04T07:54:47.207Z,3314.00
2022-08-04T07:55:46.157Z,3331.00
2022-08-04T07:56:46.147Z,3383.00
2022-08-04T07:57:46.641Z,3422.00
2022-08-04T07:58:46.179Z,3471.00
2022-08-04T07:59:49.991Z,3532.00
2022-08-04T08:00:46.311Z,3584.00
2022-08-04T08:01:46.302Z,3611.00
2022-08-04T08:02:46.096Z,3639.00
2022-08-04T08:03:46.183Z,3676.00
2022-08-04T08:04:52.084Z,3700.00
2022-08-04T08:06:16.799Z,3740.00
2022-08-04T08:06:53.088Z,3767.00
2022-08-04T08:07:50.649Z,3872.00
2022-08-04T08:08:48.030Z,3960.00
2022-08-04T08:09:46.193Z,3983.00
2022-08-04T08:10:46.224Z,4022.00
2022-08-04T08:12:35.761Z,4046.00
2022-08-04T08:12:51.292Z,4101.00
2022-08-04T08:13:45.978Z,4034.00
2022-08-04T08:14:45.968Z,4197.00
2022-08-04T08:15:45.961Z,4231.00
2022-08-04T08:16:45.959Z,4300.00
2022-08-04T08:17:59.096Z,4334.00
2022-08-04T08:18:50.059Z,4362.00
2022-08-04T08:19:45.930Z,4414.00
2022-08-04T08:20:45.914Z,4503.00
2022-08-04T08:21:59.204Z,4564.00
2022-08-04T08:22:46.932Z,4571.00
2022-08-04T08:23:45.883Z,4591.00
2022-08-04T08:24:45.889Z,4606.00
2022-08-04T08:25:51.882Z,4658.00
2022-08-04T08:26:45.860Z,4734.00
2022-08-04T08:27:56.442Z,4784.00
2022-08-04T08:28:52.057Z,4839.00
2022-08-04T08:29:45.853Z,4925.00
2022-08-04T08:30:52.800Z,4950.00
2022-08-04T08:31:56.319Z,4925.00
2022-08-04T08:32:45.805Z,4908.00
2022-08-04T08:33:45.794Z,5885.00
2022-08-04T08:34:45.784Z,3459.00
2022-08-04T08:35:53.319Z,5048.00
2022-08-04T08:36:46.799Z,5294.00
2022-08-04T08:37:45.757Z,4952.00
2022-08-04T08:38:45.955Z,5110.00
2022-08-04T08:40:39.994Z,5171.00
2022-08-04T08:41:29.465Z,5125.00
2022-08-04T08:42:34.414Z,5192.00
2022-08-04T08:44:06.105Z,6578.00
2022-08-04T08:44:30.102Z,3388.00
2022-08-04T08:45:30.383Z,5323.00
2022-08-04T08:46:47.999Z,5286.00
2022-08-04T08:47:29.418Z,5447.00
2022-08-04T08:48:28.352Z,5312.00
2022-08-04T08:50:02.293Z,5453.00
2022-08-04T08:50:29.399Z,5450.00
2022-08-04T08:51:28.324Z,5443.00
2022-08-04T08:53:01.061Z,5536.00
2022-08-04T08:53:28.306Z,5553.00
2022-08-04T08:54:28.300Z,5636.00
2022-08-04T08:55:59.025Z,5810.00
2022-08-04T08:56:59.014Z,5742.00
2022-08-04T08:57:59.942Z,5850.00
2022-08-04T08:59:05.000Z,5920.00
2022-08-04T09:00:06.042Z,5941.00
2022-08-04T09:00:58.972Z,5999.00
2022-08-04T09:02:05.178Z,6170.00
2022-08-04T09:03:33.663Z,5734.00
2022-08-04T09:04:35.643Z,5710.00
2022-08-04T09:05:33.631Z,6728.00
2022-08-04T09:06:33.628Z,2573.00
2022-08-04T09:07:33.617Z,5604.00
2022-08-04T09:08:33.613Z,5569.00
2022-08-04T09:09:39.807Z,6314.00
2022-08-04T09:10:39.816Z,6364.00
2022-08-04T09:11:33.586Z,6335.00
2022-08-04T09:12:39.582Z,7414.00
2022-08-04T09:13:33.575Z,5174.00
2022-08-04T09:14:33.557Z,6549.00
2022-08-04T09:15:33.547Z,6586.00
2022-08-04T09:16:33.539Z,6653.00
2022-08-04T09:17:33.533Z,6717.00
2022-08-04T09:18:33.523Z,6889.00
2022-08-04T09:19:37.666Z,6827.00
2022-08-04T09:20:35.508Z,6974.00
2022-08-04T09:21:33.707Z,7158.00
2022-08-04T09:23:20.353Z,6982.00
2022-08-04T09:24:35.422Z,6935.00
2022-08-04T09:25:21.360Z,7052.00
2022-08-04T09:27:01.016Z,7192.00
2022-08-04T09:27:54.989Z,7089.00
2022-08-04T09:29:00.989Z,7297.00
2022-08-04T09:29:54.977Z,7296.00
2022-08-04T09:30:54.974Z,7448.00
2022-08-04T09:32:06.751Z,7477.00
2022-08-04T09:32:56.947Z,7536.00
2022-08-04T09:33:54.943Z,7483.00
2022-08-04T09:35:04.690Z,7943.00
2022-08-04T09:36:02.189Z,6859.00
2022-08-04T09:36:54.920Z,7722.00
2022-08-04T09:37:54.915Z,7761.00
2022-08-04T09:38:54.963Z,7851.00
2022-08-04T09:39:54.897Z,8360.00
2022-08-04T09:40:56.935Z,7794.00
2022-08-04T09:41:55.081Z,7629.00
2022-08-04T09:42:55.075Z,8086.00
2022-08-04T09:44:51.293Z,8045.00
2022-08-04T09:45:01.745Z,8084.00
2022-08-04T09:45:54.854Z,8078.00
2022-08-04T09:46:55.240Z,8099.00
2022-08-04T09:48:01.040Z,8061.00
2022-08-04T09:48:54.830Z,8088.00
2022-08-04T09:49:55.017Z,8168.00
2022-08-04T09:50:54.811Z,8249.00
2022-08-04T09:51:57.166Z,8314.00
2022-08-04T09:52:54.795Z,8297.00
2022-08-04T09:53:54.989Z,8210.00
2022-08-04T09:54:54.775Z,8245.00
2022-08-04T09:56:03.791Z,8570.00
2022-08-04T09:56:54.761Z,8701.00
2022-08-04T09:57:54.758Z,8763.00
2022-08-04T09:59:00.957Z,8920.00
2022-08-04T09:59:54.941Z,9214.00
2022-08-04T10:00:54.730Z,8914.00
2022-08-04T10:02:00.069Z,9202.00
2022-08-04T10:02:54.954Z,9579.00
2022-08-04T10:03:54.707Z,10061.00
2022-08-04T10:05:00.914Z,10155.00
2022-08-04T10:05:54.705Z,10786.00
2022-08-04T10:06:54.686Z,10751.00
2022-08-04T10:07:59.608Z,11347.00
2022-08-04T10:08:57.288Z,11936.00
2022-08-04T10:09:54.871Z,11734.00
2022-08-04T10:10:54.860Z,12147.00
2022-08-04T10:11:56.021Z,13283.00
2022-08-04T10:12:54.646Z,13788.00
2022-08-04T10:13:54.645Z,13234.00
2022-08-04T10:14:54.633Z,13748.00
2022-08-04T10:15:54.629Z,16874.00
2022-08-04T10:16:54.622Z,18193.00
2022-08-04T10:17:54.624Z,21604.00
2022-08-04T10:18:54.612Z,21424.00
2022-08-04T10:19:54.599Z,19195.00
2022-08-04T10:20:58.961Z,77210.00
2022-08-04T10:22:25.686Z,78293.00
2022-08-04T10:23:56.793Z,79714.00
2022-08-04T10:24:34.516Z,80634.00
2022-08-04T10:26:03.413Z,81532.00
2022-08-04T10:26:35.326Z,81498.00
2022-08-04T10:27:34.292Z,79758.00
2022-08-04T10:28:34.285Z,79178.00
2022-08-04T10:29:40.283Z,78800.00
2022-08-04T10:30:34.269Z,80140.00
2022-08-04T10:31:34.260Z,81470.00
2022-08-04T10:32:34.247Z,73924.00
2022-08-04T10:33:34.246Z,23915.00
2022-08-04T10:34:34.237Z,78973.00
2022-08-04T10:35:34.229Z,73515.00
2022-08-04T10:36:34.226Z,33456.00
2022-08-04T10:38:00.229Z,19381.00
2022-08-04T10:38:35.244Z,18027.00
2022-08-04T10:39:43.771Z,8411.00
2022-08-04T10:40:35.248Z,79441.00
2022-08-04T10:41:34.194Z,77902.00
2022-08-04T10:42:34.187Z,78412.00
2022-08-04T10:43:34.190Z,79808.00
2022-08-04T10:44:42.198Z,81064.00
2022-08-04T10:45:35.232Z,82695.00
2022-08-04T10:46:40.229Z,82916.00
2022-08-04T10:47:40.374Z,81958.00
2022-08-04T10:48:35.296Z,80308.00
2022-08-04T10:49:34.344Z,78895.00
2022-08-04T10:50:34.350Z,76511.00
2022-08-04T10:51:57.431Z,81975.00
2022-08-04T10:52:34.139Z,80516.00
2022-08-04T10:53:34.138Z,79828.00
2022-08-04T10:54:34.328Z,79471.00
2022-08-04T10:56:07.287Z,79603.00
2022-08-04T10:56:41.150Z,80020.00
2022-08-04T10:58:17.206Z,79111.00
2022-08-04T10:59:16.991Z,79788.00
2022-08-04T11:00:17.040Z,79668.00
2022-08-04T11:02:01.007Z,80021.00
2022-08-04T11:03:05.172Z,82192.00
2022-08-04T11:04:04.858Z,81551.00
2022-08-04T11:05:11.068Z,81960.00
2022-08-04T11:06:11.072Z,82470.00
2022-08-04T11:07:04.848Z,82703.00
2022-08-04T11:08:10.053Z,81931.00
2022-08-04T11:09:14.945Z,81058.00
2022-08-04T11:10:48.581Z,9186.00
2022-08-04T11:12:00.403Z,82170.00
2022-08-04T11:12:49.596Z,80524.00
2022-08-04T11:13:48.547Z,80929.00
2022-08-04T11:14:54.558Z,81539.00
2022-08-04T11:15:48.540Z,82328.00
2022-08-04T11:16:55.145Z,82311.00
2022-08-04T11:17:49.543Z,81474.00
2022-08-04T11:18:50.524Z,82291.00
2022-08-04T11:20:07.482Z,83272.00
2022-08-04T11:20:49.178Z,81187.00
2022-08-04T11:21:48.718Z,81299.00
2022-08-04T11:23:35.322Z,80371.00
2022-08-04T11:24:35.304Z,78278.00
2022-08-04T11:25:35.499Z,77533.00
2022-08-04T11:26:35.298Z,79219.00
2022-08-04T11:27:35.289Z,78078.00
2022-08-04T11:28:35.284Z,76194.00
2022-08-04T11:29:35.478Z,76283.00
2022-08-04T11:30:35.474Z,75854.00
2022-08-04T11:32:34.150Z,83324.00
2022-08-04T11:34:17.252Z,79190.00
2022-08-04T11:35:17.452Z,76245.00
2022-08-04T11:36:25.052Z,76720.00
2022-08-04T11:37:17.034Z,61730.00
2022-08-04T11:39:03.781Z,81862.00
2022-08-04T11:40:10.187Z,66093.00
2022-08-04T11:41:03.975Z,10244.00
2022-08-04T11:42:09.713Z,29978.00
2022-08-04T11:43:09.711Z,15769.00
2022-08-04T11:44:07.988Z,11115.00
2022-08-04T11:45:38.397Z,79880.00
2022-08-04T11:46:44.381Z,60992.00
2022-08-04T11:47:38.566Z,8279.00
2022-08-04T11:48:44.368Z,15551.00
2022-08-04T11:49:56.618Z,9157.00
2022-08-04T11:50:38.553Z,8453.00
2022-08-04T11:51:44.753Z,10713.00
2022-08-04T11:52:38.542Z,8382.00
2022-08-04T11:53:38.335Z,11087.00
2022-08-04T11:54:38.354Z,8489.00
2022-08-04T11:56:07.684Z,3782.00
2022-08-04T11:56:39.555Z,13446.00
2022-08-04T11:57:38.305Z,24733.00
2022-08-04T11:58:38.301Z,5896.00
2022-08-04T11:59:38.297Z,32211.00
2022-08-04T12:00:44.496Z,16146.00
2022-08-04T12:02:21.144Z,12452.00
2022-08-04T12:03:18.985Z,10217.00
2022-08-04T12:04:13.104Z,15548.00
2022-08-04T12:05:33.585Z,9708.00
2022-08-04T12:06:13.977Z,8883.00
2022-08-04T12:08:16.019Z,9902.00
2022-08-04T12:09:13.123Z,9106.00
2022-08-04T12:10:13.110Z,9829.00
2022-08-04T12:11:12.915Z,8108.00
2022-08-04T12:12:12.886Z,7139.00
2022-08-04T12:13:12.895Z,8131.00
2022-08-04T12:14:12.879Z,9001.00
2022-08-04T12:15:19.091Z,8698.00
2022-08-04T12:16:12.858Z,8404.00
2022-08-04T12:17:12.847Z,7970.00
2022-08-04T12:18:12.842Z,8025.00
2022-08-04T12:19:15.398Z,9432.00
2022-08-04T12:20:30.026Z,9439.00
2022-08-04T12:21:14.936Z,11301.00
2022-08-04T12:22:12.804Z,10146.00
2022-08-04T12:23:12.800Z,10491.00
2022-08-04T12:24:47.685Z,11126.00
2022-08-04T12:25:47.875Z,10537.00
2022-08-04T12:26:47.654Z,13241.00
2022-08-04T12:27:47.653Z,9217.00
2022-08-04T12:29:09.204Z,12178.00
2022-08-04T12:31:00.534Z,59767.00
2022-08-04T12:31:02.073Z,5633.00
2022-08-04T12:31:49.619Z,10852.00
2022-08-04T12:32:53.922Z,10915.00
2022-08-04T12:34:04.314Z,7719.00
2022-08-04T12:34:48.643Z,6836.00
2022-08-04T12:36:10.607Z,6196.00
2022-08-04T12:36:48.616Z,5523.00
2022-08-04T12:37:53.773Z,8907.00
2022-08-04T12:38:47.555Z,6694.00
2022-08-04T12:40:27.835Z,8391.00
2022-08-04T12:40:48.580Z,9926.00
2022-08-04T12:41:47.532Z,5416.00
2022-08-04T12:43:44.294Z,78448.00
2022-08-04T12:44:38.960Z,79903.00
2022-08-04T12:45:39.298Z,62645.00
2022-08-04T12:46:38.250Z,19854.00
2022-08-04T12:48:21.774Z,78852.00
2022-08-04T12:49:21.435Z,78894.00
2022-08-04T12:50:27.235Z,65301.00
2022-08-04T12:52:06.253Z,16511.00
2022-08-04T12:52:27.233Z,64392.00
2022-08-04T12:54:04.939Z,75843.00
2022-08-04T12:55:04.924Z,75101.00
2022-08-04T12:56:04.930Z,76322.00
2022-08-04T12:57:04.926Z,61444.00
2022-08-04T12:58:05.104Z,15883.00
2022-08-04T12:59:04.893Z,6340.00
2022-08-04T13:00:04.901Z,75621.00
2022-08-04T13:02:07.248Z,67743.00
2022-08-04T13:02:10.933Z,32249.00
2022-08-04T13:03:04.868Z,8001.00
2022-08-04T13:04:10.873Z,78055.00
2022-08-04T13:05:04.862Z,78809.00
2022-08-04T13:06:11.470Z,79831.00
2022-08-04T13:07:10.862Z,80289.00
2022-08-04T13:08:11.069Z,80262.00
2022-08-04T13:09:49.723Z,80000.00
2022-08-04T13:12:06.838Z,79145.00
2022-08-04T13:13:13.042Z,79625.00
2022-08-04T13:14:26.555Z,79975.00
2022-08-04T13:15:08.855Z,79494.00
2022-08-04T13:16:08.430Z,79761.00
2022-08-04T13:17:12.823Z,79979.00
2022-08-04T13:18:07.412Z,79955.00
2022-08-04T13:19:08.456Z,81374.00
2022-08-04T13:20:06.795Z,82186.00
2022-08-04T13:21:08.421Z,80760.00
2022-08-04T13:22:08.437Z,80624.00
2022-08-04T13:23:14.986Z,80355.00
2022-08-04T13:24:56.617Z,80249.00
2022-08-04T13:26:44.251Z,80185.00
2022-08-04T13:26:54.859Z,79194.00
2022-08-04T13:27:43.673Z,78369.00
2022-08-04T13:28:44.483Z,78657.00
2022-08-04T13:29:59.973Z,78226.00
2022-08-04T13:31:24.629Z,77936.00
2022-08-04T13:32:19.430Z,77983.00
2022-08-04T13:33:18.390Z,77656.00
2022-08-04T13:36:25.299Z,74803.00
2022-08-04T13:37:31.281Z,75676.00
2022-08-04T13:38:25.274Z,76967.00
2022-08-04T13:39:25.533Z,79492.00
2022-08-04T13:40:25.257Z,80263.00
2022-08-04T13:41:28.978Z,80130.00
2022-08-04T13:42:25.449Z,80281.00
2022-08-04T13:44:16.367Z,80708.00
2022-08-04T13:44:26.544Z,80892.00
2022-08-04T13:46:00.134Z,81510.00
2022-08-04T13:46:59.942Z,81268.00
2022-08-04T13:47:59.921Z,80629.00
2022-08-04T13:50:10.073Z,81658.00
2022-08-04T13:52:59.688Z,80051.00
2022-08-04T13:53:59.674Z,79080.00
2022-08-04T13:54:59.669Z,77450.00
2022-08-04T13:56:32.477Z,78205.00
2022-08-04T13:57:32.460Z,79680.00
2022-08-04T13:58:30.397Z,78448.00
2022-08-04T13:59:30.388Z,79239.00
2022-08-04T14:00:36.486Z,78846.00
2022-08-04T14:01:36.493Z,78787.00
2022-08-04T14:02:30.378Z,78032.00
2022-08-04T14:03:53.828Z,78152.00
2022-08-04T14:04:31.435Z,77896.00
2022-08-04T14:05:33.891Z,76982.00
2022-08-04T14:06:32.371Z,76723.00
2022-08-04T14:07:30.792Z,77345.00
2022-08-04T14:08:31.349Z,77650.00
2022-08-04T14:10:43.903Z,77763.00
2022-08-04T14:12:06.427Z,78064.00
2022-08-04T14:12:46.810Z,78711.00
2022-08-04T14:13:44.092Z,78766.00
2022-08-04T14:14:43.882Z,78328.00
2022-08-04T14:16:02.262Z,78940.00
2022-08-04T14:16:44.902Z,79654.00
2022-08-04T14:18:42.808Z,78242.00
2022-08-04T14:19:48.810Z,79108.00
2022-08-04T14:20:42.791Z,79394.00
2022-08-04T14:21:48.992Z,78427.00
2022-08-04T14:22:42.773Z,78403.00
2022-08-04T14:23:47.657Z,78869.00
2022-08-04T14:24:44.001Z,78256.00
2022-08-04T14:27:47.860Z,79454.00
2022-08-04T14:29:01.260Z,78683.00
2022-08-04T14:29:42.676Z,77825.00
2022-08-04T14:30:41.824Z,77712.00
2022-08-04T14:31:44.495Z,77734.00
2022-08-04T14:32:43.622Z,77518.00
2022-08-04T14:34:03.175Z,78222.00
2022-08-04T14:36:33.111Z,78284.00
2022-08-04T14:37:47.408Z,78879.00
2022-08-04T14:38:34.325Z,78289.00
2022-08-04T14:39:33.140Z,77760.00
2022-08-04T14:40:33.547Z,77115.00
2022-08-04T14:41:33.056Z,77350.00
2022-08-04T14:42:34.105Z,76852.00
2022-08-04T14:43:33.057Z,77347.00
2022-08-04T14:44:33.042Z,76856.00
2022-08-04T14:45:33.060Z,76871.00
2022-08-04T14:46:36.972Z,76791.00